Time;durP1;ratioP1;P1;durP2;ratioP2;P2;SDS_P1;SDS_P2;PMS_P1;PMS_P2;Temp;Humidity;BMP_temperature;BMP_pressure;BME280_temperature;BME280_humidity;BME280_pressure;Samples;Min_cycle;Max_cycle;Signal;HPM_P1;HPM_P2
2022/04/02 00:00:28;;;;;;;26.38;18.73;;;;;;;-3.06;100.00;91626.44;2081197;28;20079;-85
2022/04/02 00:01:29;;;;;;;24.63;17.80;;;;;;;-3.09;100.00;91622.69;2085038;28;20119;-84
2022/04/02 00:02:30;;;;;;;24.73;17.88;;;;;;;-3.01;100.00;91625.34;2091243;28;20407;-84
2022/04/02 00:03:31;;;;;;;25.88;18.45;;;;;;;-2.91;100.00;91619.38;2092700;28;20064;-85
2022/04/02 00:04:32;;;;;;;24.17;17.20;;;;;;;-2.99;100.00;91629.06;2094152;28;20033;-84
2022/04/02 00:05:33;;;;;;;25.52;18.08;;;;;;;-2.94;100.00;91627.97;2092126;28;20033;-83
2022/04/02 00:06:34;;;;;;;27.73;18.60;;;;;;;-3.07;100.00;91617.09;2097426;28;20131;-84
2022/04/02 00:07:36;;;;;;;23.98;18.15;;;;;;;-2.93;100.00;91626.88;2100253;28;20032;-85
2022/04/02 00:08:37;;;;;;;26.33;17.98;;;;;;;-3.01;100.00;91625.34;2098341;28;20489;-85
2022/04/02 00:09:38;;;;;;;25.77;18.77;;;;;;;-3.10;100.00;91623.06;2081730;28;20033;-85
2022/04/02 00:10:39;;;;;;;29.02;19.48;;;;;;;-3.08;100.00;91616.31;2081857;28;20029;-84
2022/04/02 00:11:40;;;;;;;27.13;19.23;;;;;;;-3.13;100.00;91618.56;2088755;28;20031;-83
2022/04/02 00:12:41;;;;;;;27.98;19.33;;;;;;;-3.10;100.00;91613.34;2095753;28;20029;-85
2022/04/02 00:13:42;;;;;;;25.85;19.00;;;;;;;-2.80;100.00;91615.69;2099568;28;20101;-85
2022/04/02 00:14:45;;;;;;;28.58;19.88;;;;;;;-2.85;100.00;91613.44;2101847;28;20059;-83
2022/04/02 00:15:46;;;;;;;33.33;19.17;;;;;;;-2.80;100.00;91622.81;2098553;28;20036;-83
2022/04/02 00:16:47;;;;;;;26.10;18.95;;;;;;;-2.74;100.00;91618.69;2089804;28;20028;-84
2022/04/02 00:17:48;;;;;;;24.00;18.05;;;;;;;-2.75;100.00;91621.69;2090136;28;20653;-86
2022/04/02 00:18:49;;;;;;;27.50;19.27;;;;;;;-2.81;100.00;91622.06;2090629;28;20036;-86
2022/04/02 00:19:50;;;;;;;27.98;19.58;;;;;;;-2.79;100.00;91624.28;2098265;28;20029;-85
2022/04/02 00:20:51;;;;;;;27.42;19.60;;;;;;;-2.72;100.00;91621.72;2089888;28;20033;-84
2022/04/02 00:21:52;;;;;;;30.17;21.00;;;;;;;-2.87;100.00;91620.16;2091557;28;20090;-83
2022/04/02 00:24:14;;;;;;;28.48;18.85;;;;;;;-2.93;100.00;91624.25;2108456;28;20042;-84
2022/04/02 00:25:17;;;;;;;26.92;18.90;;;;;;;-2.95;100.00;91626.47;2098033;28;20763;-84
2022/04/02 00:26:22;;;;;;;28.10;19.65;;;;;;;-3.00;100.00;91622.34;2082431;28;20029;-84
2022/04/02 00:27:23;;;;;;;31.10;20.48;;;;;;;-2.99;100.00;91620.47;2092190;28;20033;-85
2022/04/02 00:28:24;;;;;;;31.67;20.58;;;;;;;-3.01;100.00;91625.34;2101676;28;20020;-83
2022/04/02 00:29:25;;;;;;;29.20;20.48;;;;;;;-2.98;100.00;91629.84;2102201;28;20028;-86
2022/04/02 00:30:26;;;;;;;29.95;20.95;;;;;;;-2.99;100.00;91620.47;2103514;28;20070;-85
2022/04/02 00:31:29;;;;;;;30.30;19.85;;;;;;;-2.60;100.00;91623.97;2100146;28;20051;-84
2022/04/02 00:32:30;;;;;;;28.35;18.80;;;;;;;-2.81;100.00;91622.06;2098677;28;20056;-83
2022/04/02 00:33:31;;;;;;;28.92;18.83;;;;;;;-2.94;100.00;91613.03;2089840;28;20052;-82
2022/04/02 00:34:32;;;;;;;29.23;20.90;;;;;;;-2.98;100.00;91620.13;2081677;28;20032;-85
2022/04/02 00:35:33;;;;;;;29.85;20.48;;;;;;;-3.01;100.00;91620.09;2084384;28;20029;-85
2022/04/02 00:36:37;;;;;;;30.40;21.25;;;;;;;-2.93;100.00;91619.03;2089558;28;20032;-86
2022/04/02 00:37:38;;;;;;;31.35;20.65;;;;;;;-2.94;100.00;91617.50;2090255;28;20025;-84
2022/04/02 00:38:40;;;;;;;31.52;21.58;;;;;;;-2.89;100.00;91617.16;2091190;28;20079;-83
2022/04/02 00:39:41;;;;;;;30.17;20.58;;;;;;;-2.90;100.00;91613.03;2097816;28;20032;-85
2022/04/02 00:40:42;;;;;;;31.35;20.88;;;;;;;-2.87;100.00;91617.53;2089711;28;20032;-85
2022/04/02 00:41:43;;;;;;;30.25;21.05;;;;;;;-2.92;100.00;91617.91;2101329;28;20032;-86
2022/04/02 00:42:45;;;;;;;34.33;21.80;;;;;;;-2.85;100.00;91613.44;2098177;28;20661;-85
2022/04/02 00:44:16;;;;;;;32.53;21.48;;;;;;;-2.89;100.00;91615.31;2091827;28;20048;-86
2022/04/02 00:45:17;;;;;;;29.05;20.27;;;;;;;-2.88;100.00;91616.78;2091868;28;20052;-85
2022/04/02 00:46:19;;;;;;;31.50;20.95;;;;;;;-2.88;100.00;91618.66;2087546;28;20657;-85
2022/04/02 00:47:22;;;;;;;30.13;20.27;;;;;;;-3.00;100.00;91616.38;2082160;28;20072;-87
2022/04/02 00:48:24;;;;;;;33.20;22.40;;;;;;;-3.05;100.00;91617.47;2089597;28;20375;-85
2022/04/02 00:49:25;;;;;;;31.33;21.20;;;;;;;-3.09;100.00;91619.31;2097959;28;20129;-84
2022/04/02 00:50:27;;;;;;;32.70;21.88;;;;;;;-2.91;100.00;91614.16;2099542;28;20493;-84
2022/04/02 00:51:28;;;;;;;32.22;22.13;;;;;;;-3.04;100.00;91621.56;2093069;28;20112;-85
2022/04/02 00:52:29;;;;;;;31.90;20.33;;;;;;;-3.02;100.00;91619.34;2080488;28;20116;-85
2022/04/02 00:53:41;;;;;;;34.78;22.58;;;;;;;-3.05;100.00;91615.59;2096132;28;20035;-86
2022/04/02 00:54:42;;;;;;;32.30;21.08;;;;;;;-3.04;100.00;91609.25;2098657;28;20048;-82
2022/04/02 00:55:45;;;;;;;32.85;20.58;;;;;;;-2.92;100.00;91616.03;2093412;28;20398;-85
2022/04/02 00:56:47;;;;;;;32.85;20.52;;;;;;;-2.90;100.00;91618.25;2085605;28;20881;-84
2022/04/02 00:57:48;;;;;;;31.33;21.05;;;;;;;-2.89;100.00;91625.75;2089808;28;20067;-85
2022/04/02 00:58:49;;;;;;;31.08;21.05;;;;;;;-3.02;100.00;91627.19;2098864;28;20028;-85
2022/04/02 00:59:50;;;;;;;29.40;20.33;;;;;;;-2.94;100.00;91620.13;2097628;28;20024;-86
2022/04/02 01:00:52;;;;;;;29.92;20.02;;;;;;;-3.07;100.00;91624.94;2081501;28;20503;-85
2022/04/02 01:01:53;;;;;;;33.28;21.05;;;;;;;-3.08;100.00;91616.31;2084806;28;20091;-84
2022/04/02 01:02:54;;;;;;;31.45;20.80;;;;;;;-3.13;100.00;91619.28;2095902;28;20058;-83
2022/04/02 01:03:55;;;;;;;28.15;18.83;;;;;;;-2.89;100.00;91625.00;2099077;28;20032;-84
2022/04/02 01:04:58;;;;;;;29.60;19.92;;;;;;;-2.83;100.00;91628.75;2089617;28;20528;-83
2022/04/02 01:05:59;;;;;;;28.48;19.02;;;;;;;-3.01;100.00;91623.47;2081798;28;20033;-86
2022/04/02 01:07:00;;;;;;;34.22;20.48;;;;;;;-3.02;100.00;91621.97;2088952;28;20021;-85
2022/04/02 01:08:05;;;;;;;26.40;18.80;;;;;;;-3.01;100.00;91615.63;2087150;28;20785;-84
2022/04/02 01:09:06;;;;;;;29.15;20.02;;;;;;;-2.91;100.00;91617.53;2096335;28;20142;-83
2022/04/02 01:10:07;;;;;;;30.77;20.55;;;;;;;-2.91;100.00;91620.13;2090315;28;20848;-83
2022/04/02 01:11:08;;;;;;;31.50;19.92;;;;;;;-3.06;100.00;91621.22;2084496;28;20115;-83
2022/04/02 01:12:16;;;;;;;29.40;20.30;;;;;;;-3.00;100.00;91616.38;2085932;28;20044;-83
2022/04/02 01:13:17;;;;;;;28.60;19.58;;;;;;;-3.22;100.00;91628.59;2077271;28;20383;-83
2022/04/02 01:14:18;;;;;;;30.08;19.85;;;;;;;-3.10;100.00;91623.81;2084355;28;20056;-82
2022/04/02 01:15:19;;;;;;;28.77;19.45;;;;;;;-3.24;100.00;91620.38;2091924;28;20527;-84
2022/04/02 01:16:20;;;;;;;29.77;20.30;;;;;;;-3.21;100.00;91623.00;2093051;28;20111;-83
2022/04/02 01:17:22;;;;;;;30.08;19.48;;;;;;;-3.17;100.00;91626.38;2093124;28;20035;-83
2022/04/02 01:18:23;;;;;;;29.55;19.83;;;;;;;-3.19;100.00;91622.63;2095616;28;20502;-84
2022/04/02 01:19:24;;;;;;;26.63;18.80;;;;;;;-3.14;100.00;91627.50;2099842;28;20032;-85
2022/04/02 01:20:27;;;;;;;27.48;18.90;;;;;;;-3.19;100.00;91620.78;2093125;28;20520;-83
2022/04/02 01:21:29;;;;;;;29.10;18.65;;;;;;;-3.20;100.00;91623.75;2093634;28;20025;-85
2022/04/02 01:22:30;;;;;;;25.00;18.25;;;;;;;-3.07;100.00;91627.56;2073978;28;20116;-83
2022/04/02 01:23:32;;;;;;;29.10;17.92;;;;;;;-3.14;100.00;91625.66;2084376;28;20029;-86
2022/04/02 01:24:33;;;;;;;25.75;18.08;;;;;;;-3.26;100.00;91628.56;2084123;28;20028;-84
2022/04/02 01:25:34;;;;;;;28.88;19.15;;;;;;;-3.05;100.00;91623.44;2088227;28;20462;-83
2022/04/02 01:26:35;;;;;;;29.50;19.00;;;;;;;-3.05;100.00;91620.84;2089955;28;20553;-83
2022/04/02 01:27:37;;;;;;;30.05;19.38;;;;;;;-3.18;100.00;91619.66;2083425;28;20060;-84
2022/04/02 01:28:38;;;;;;;27.92;18.35;;;;;;;-3.12;100.00;91620.78;2073989;28;20034;-84
2022/04/02 01:29:39;;;;;;;29.77;19.48;;;;;;;-3.14;100.00;91619.69;2072872;28;20468;-83
2022/04/02 01:30:39;;;;;;;28.95;18.25;;;;;;;-3.01;100.00;91626.06;2078455;28;20032;-83
2022/04/02 01:31:44;;;;;;;31.73;19.85;;;;;;;-3.18;100.00;91629.34;2097046;28;20179;-84
2022/04/02 01:32:46;;;;;;;28.38;18.55;;;;;;;-3.13;100.00;91629.75;2089584;28;21534;-82
2022/04/02 01:33:49;;;;;;;28.33;18.25;;;;;;;-3.09;100.00;91625.28;2083089;28;20873;-84
2022/04/02 01:34:50;;;;;;;29.63;18.98;;;;;;;-3.03;100.00;91628.28;2083077;28;20036;-85
2022/04/02 01:35:59;;;;;;;27.33;18.85;;;;;;;-3.06;100.00;91629.03;2097365;28;20033;-83
2022/04/02 01:37:00;;;;;;;26.02;18.00;;;;;;;-3.04;100.00;91626.81;2100296;28;20086;-83
2022/04/02 01:38:01;;;;;;;25.65;17.95;;;;;;;-2.89;100.00;91625.75;2097174;28;20105;-85
2022/04/02 01:39:03;;;;;;;26.08;18.67;;;;;;;-2.94;100.00;91635.78;2081419;28;20475;-83
2022/04/02 01:40:06;;;;;;;27.92;18.60;;;;;;;-2.93;100.00;91627.59;2081348;28;20079;-85
2022/04/02 01:41:09;;;;;;;26.10;17.30;;;;;;;-2.95;100.00;91635.06;2091044;28;20035;-84
2022/04/02 01:42:12;;;;;;;27.65;18.25;;;;;;;-2.88;100.00;91632.47;2090945;28;20025;-83
2022/04/02 01:43:13;;;;;;;25.83;18.33;;;;;;;-2.93;100.00;91634.69;2096763;28;20028;-84
2022/04/02 01:44:15;;;;;;;25.55;17.25;;;;;;;-2.97;100.00;91626.84;2084014;28;20053;-83
2022/04/02 01:45:16;;;;;;;26.15;17.55;;;;;;;-2.91;100.00;91622.00;2094469;28;20115;-82
2022/04/02 01:46:23;;;;;;;21.25;15.68;;;;;;;-3.05;100.00;91631.28;2096943;28;20147;-85
2022/04/02 01:47:25;;;;;;;22.65;16.88;;;;;;;-3.00;100.00;91624.22;2096643;28;20094;-84
2022/04/02 01:48:26;;;;;;;25.95;17.20;;;;;;;-2.91;100.00;91625.38;2074538;28;20026;-84
2022/04/02 01:49:28;;;;;;;24.63;17.08;;;;;;;-2.94;100.00;91627.97;2081421;28;20039;-83
2022/04/02 01:50:29;;;;;;;23.65;16.35;;;;;;;-2.90;100.00;91629.47;2087949;28;20029;-85
2022/04/02 01:51:30;;;;;;;22.50;15.77;;;;;;;-2.83;100.00;91623.53;2089153;28;20483;-84
2022/04/02 01:52:31;;;;;;;21.27;15.13;;;;;;;-2.71;100.00;91625.06;2081005;28;20065;-86
2022/04/02 01:53:34;;;;;;;21.15;15.15;;;;;;;-3.00;100.00;91632.06;2076398;28;20784;-83
2022/04/02 01:54:35;;;;;;;23.33;15.75;;;;;;;-3.02;100.00;91623.84;2088408;28;20037;-84
2022/04/02 01:55:37;;;;;;;22.73;14.82;;;;;;;-2.98;100.00;91619.38;2090885;28;20033;-86
2022/04/02 01:56:37;;;;;;;22.98;16.05;;;;;;;-2.90;100.00;91616.41;2088975;28;20033;-85
2022/04/02 01:57:38;;;;;;;22.92;15.68;;;;;;;-3.00;100.00;91621.59;2094523;28;20555;-86
2022/04/02 01:58:40;;;;;;;23.02;15.20;;;;;;;-2.85;100.00;91617.94;2097612;28;20059;-82
2022/04/02 01:59:44;;;;;;;24.58;16.05;;;;;;;-2.81;100.00;91624.66;2095359;28;20060;-85
2022/04/02 02:00:48;;;;;;;21.13;14.10;;;;;;;-2.99;100.00;91626.44;2083715;28;20028;-84
2022/04/02 02:01:49;;;;;;;19.67;13.40;;;;;;;-2.98;100.00;91620.13;2084306;28;20086;-84
2022/04/02 02:02:51;;;;;;;21.23;14.80;;;;;;;-3.07;100.00;91615.22;2081051;28;20025;-82
2022/04/02 02:03:52;;;;;;;18.75;13.85;;;;;;;-2.96;100.00;91619.75;2073024;28;20890;-85
2022/04/02 02:04:53;;;;;;;20.00;14.43;;;;;;;-3.01;100.00;91620.09;2082746;28;20033;-82
2022/04/02 02:05:54;;;;;;;20.35;14.77;;;;;;;-2.89;100.00;91617.16;2090467;28;20049;-84
2022/04/02 02:07:04;;;;;;;19.30;14.90;;;;;;;-2.76;100.00;91613.09;2086783;28;20474;-82
2022/04/02 02:08:06;;;;;;;19.10;14.13;;;;;;;-2.77;100.00;91619.44;2089618;28;20475;-83
2022/04/02 02:09:08;;;;;;;19.60;14.77;;;;;;;-2.89;100.00;91622.41;2097467;28;20032;-84
2022/04/02 02:10:09;;;;;;;18.20;13.07;;;;;;;-2.85;100.00;91623.91;2089447;28;20513;-84
2022/04/02 02:12:23;;;;;;;19.65;13.43;;;;;;;-3.01;100.00;91623.47;2132489;27;20175;-81
2022/04/02 02:13:24;;;;;;;21.08;14.27;;;;;;;-2.82;100.00;91622.41;2120871;28;20031;-85
2022/04/02 02:14:26;;;;;;;19.63;14.18;;;;;;;-2.87;100.00;91625.38;2092927;28;20028;-82
2022/04/02 02:15:27;;;;;;;19.88;14.38;;;;;;;-2.84;100.00;91622.03;2100529;28;20052;-83
2022/04/02 02:16:28;;;;;;;20.33;14.55;;;;;;;-2.70;100.00;91626.56;2100290;28;20723;-82
2022/04/02 02:17:29;;;;;;;22.02;15.13;;;;;;;-2.77;100.00;91627.28;2105093;28;20077;-84
2022/04/02 02:18:30;;;;;;;19.83;13.43;;;;;;;-2.61;100.00;91629.56;2122951;27;20052;-83
2022/04/02 02:19:31;;;;;;;17.88;13.57;;;;;;;-2.70;100.00;91626.56;2096905;28;20044;-83
2022/04/02 02:20:32;;;;;;;18.33;13.35;;;;;;;-2.84;100.00;91627.25;2100444;28;20033;-84
2022/04/02 02:21:34;;;;;;;16.67;12.63;;;;;;;-2.85;100.00;91631.00;2097554;28;20393;-84
2022/04/02 02:22:35;;;;;;;17.48;13.00;;;;;;;-2.81;100.00;91634.34;2100843;28;20024;-82
2022/04/02 02:23:36;;;;;;;17.42;13.18;;;;;;;-2.89;100.00;91628.38;2100742;28;20139;-84
2022/04/02 02:24:37;;;;;;;16.35;13.45;;;;;;;-2.77;100.00;91635.13;2098599;28;20751;-83
2022/04/02 02:25:38;;;;;;;17.42;12.52;;;;;;;-2.82;100.00;91635.47;2101473;28;20118;-84
2022/04/02 02:26:39;;;;;;;17.88;13.60;;;;;;;-2.80;100.00;91631.38;2099042;28;20032;-85
2022/04/02 02:27:43;;;;;;;17.95;13.32;;;;;;;-2.75;100.00;91634.78;2107494;28;20062;-81
2022/04/02 02:28:44;;;;;;;18.23;13.77;;;;;;;-2.76;100.00;91631.41;2115408;27;20542;-82
2022/04/02 02:29:45;;;;;;;17.67;13.55;;;;;;;-2.76;100.00;91631.41;2113026;28;20047;-82
2022/04/02 02:30:46;;;;;;;18.23;12.85;;;;;;;-2.84;100.00;91637.72;2106385;28;20107;-82
2022/04/02 02:31:47;;;;;;;16.50;13.38;;;;;;;-2.87;100.00;91635.84;2106403;28;20458;-84
2022/04/02 02:32:48;;;;;;;18.25;13.40;;;;;;;-2.74;100.00;91638.88;2107382;28;20067;-83
2022/04/02 02:36:32;;;;;;;15.93;11.80;;;;;;;-2.74;100.00;91637.00;2122301;27;20034;-82
2022/04/02 02:37:34;;;;;;;18.48;13.95;;;;;;;-2.95;100.00;91636.91;2117847;28;20372;-83
2022/04/02 02:38:35;;;;;;;17.67;13.90;;;;;;;-2.93;100.00;91635.44;2112019;28;20477;-84
2022/04/02 02:39:35;;;;;;;17.48;13.23;;;;;;;-2.94;100.00;91638.41;2112799;28;20019;-83
2022/04/02 02:40:38;;;;;;;17.75;13.25;;;;;;;-2.91;100.00;91640.31;2099562;28;20024;-82
2022/04/02 02:41:39;;;;;;;17.38;13.25;;;;;;;-2.81;100.00;91634.34;2108761;28;20021;-81
2022/04/02 02:42:41;;;;;;;17.67;13.65;;;;;;;-2.82;100.00;91635.47;2107980;28;20020;-82
2022/04/02 02:43:42;;;;;;;16.17;13.70;;;;;;;-2.89;100.00;91630.25;2110149;28;20023;-86
2022/04/02 02:44:43;;;;;;;14.55;11.82;;;;;;;-2.94;100.00;91641.81;2108811;28;20090;-82
2022/04/02 02:45:44;;;;;;;16.48;12.93;;;;;;;-2.96;100.00;91638.03;2114984;28;20102;-84
2022/04/02 02:46:45;;;;;;;15.68;13.00;;;;;;;-2.97;100.00;91636.56;2105994;28;20115;-82
2022/04/02 02:47:46;;;;;;;17.83;13.38;;;;;;;-2.96;100.00;91641.41;2107206;28;20031;-83
2022/04/02 02:48:47;;;;;;;16.23;13.25;;;;;;;-2.95;100.00;91642.16;2103255;28;20047;-82
2022/04/02 02:49:48;;;;;;;16.83;12.35;;;;;;;-2.96;100.00;91643.28;2108979;28;20023;-83
2022/04/02 02:50:49;;;;;;;18.83;13.25;;;;;;;-3.04;100.00;91635.38;2107238;28;20090;-83
2022/04/02 02:51:52;;;;;;;16.85;12.88;;;;;;;-3.09;100.00;91648.81;2101325;28;20493;-84
2022/04/02 02:52:53;;;;;;;18.10;13.75;;;;;;;-2.99;100.00;91642.13;2106332;28;20021;-82
2022/04/02 02:53:55;;;;;;;19.25;12.90;;;;;;;-2.88;100.00;91644.81;2118368;28;20031;-83
2022/04/02 02:54:57;;;;;;;16.40;12.35;;;;;;;-2.83;100.00;91637.34;2103452;28;20036;-83
2022/04/02 02:55:59;;;;;;;18.30;13.98;;;;;;;-2.80;100.00;91633.25;2098202;28;20056;-83
2022/04/02 02:57:00;;;;;;;16.40;13.10;;;;;;;-2.73;100.00;91638.50;2101719;28;20025;-81
2022/04/02 02:58:01;;;;;;;17.65;13.05;;;;;;;-2.80;100.00;91651.56;2112115;28;20077;-82
2022/04/02 02:59:16;;;;;;;15.93;12.55;;;;;;;-2.70;100.00;91640.38;2105126;28;20024;-83
2022/04/02 03:00:19;;;;;;;17.45;12.82;;;;;;;-2.65;100.00;91642.63;2099986;28;20075;-82
2022/04/02 03:01:20;;;;;;;15.25;12.35;;;;;;;-2.74;100.00;91642.25;2098371;28;20036;-83
2022/04/02 03:02:21;;;;;;;17.05;12.65;;;;;;;-2.69;100.00;91647.09;2103325;28;20119;-83
2022/04/02 03:03:22;;;;;;;17.05;12.77;;;;;;;-2.67;100.00;91642.28;2108216;28;20020;-84
2022/04/02 03:04:23;;;;;;;14.70;11.88;;;;;;;-2.84;100.00;91645.56;2113182;28;20027;-82
2022/04/02 03:05:25;;;;;;;15.93;12.55;;;;;;;-2.92;100.00;91638.81;2110484;28;20497;-81
2022/04/02 03:06:26;;;;;;;17.85;13.30;;;;;;;-2.95;100.00;91642.91;2106150;28;20015;-81
2022/04/02 03:07:35;;;;;;;17.60;13.05;;;;;;;-2.96;100.00;91645.88;2111800;28;20529;-84
2022/04/02 03:08:36;;;;;;;14.45;11.73;;;;;;;-2.66;100.00;91632.56;2104345;28;20025;-83
2022/04/02 03:09:37;;;;;;;18.10;12.82;;;;;;;-2.73;100.00;91643.72;2105946;28;20409;-82
2022/04/02 03:10:40;;;;;;;15.75;12.43;;;;;;;-2.75;100.00;91647.84;2099926;28;20040;-84
2022/04/02 03:11:43;;;;;;;14.60;12.23;;;;;;;-2.58;100.00;91642.66;2108517;27;20142;-84
2022/04/02 03:12:46;;;;;;;15.98;12.13;;;;;;;-2.65;100.00;91641.88;2106308;28;20107;-81
2022/04/02 03:13:47;;;;;;;13.93;11.80;;;;;;;-2.67;100.00;91644.88;2108292;28;20024;-84
2022/04/02 03:14:48;;;;;;;14.60;10.95;;;;;;;-2.69;100.00;91646.34;2103593;28;20024;-81
2022/04/02 03:15:49;;;;;;;16.33;11.85;;;;;;;-2.73;100.00;91643.72;2104219;28;20035;-82
2022/04/02 03:16:50;;;;;;;14.05;11.40;;;;;;;-2.55;100.00;91647.16;2118320;27;20078;-82
2022/04/02 03:17:53;;;;;;;17.27;11.70;;;;;;;-2.66;100.00;91650.84;2106995;28;20444;-81
2022/04/02 03:18:55;;;;;;;15.48;12.13;;;;;;;-2.84;100.00;91651.53;2102221;28;20031;-83
2022/04/02 03:19:57;;;;;;;16.23;11.82;;;;;;;-2.76;100.00;91659.44;2097784;28;20082;-83
2022/04/02 03:20:58;;;;;;;15.20;11.25;;;;;;;-2.89;100.00;91648.53;2110905;28;20026;-82
2022/04/02 03:21:59;;;;;;;14.93;12.18;;;;;;;-2.91;100.00;91653.38;2109262;28;20016;-82
2022/04/02 03:23:00;;;;;;;14.57;12.20;;;;;;;-2.83;100.00;91655.66;2095183;28;20028;-82
2022/04/02 03:24:02;;;;;;;14.80;11.85;;;;;;;-2.76;100.00;91646.34;2091181;28;20118;-83
2022/04/02 03:25:03;;;;;;;14.48;12.02;;;;;;;-2.81;100.00;91657.88;2096952;28;20131;-84
2022/04/02 03:26:04;;;;;;;13.45;11.50;;;;;;;-2.87;100.00;91648.91;2098558;28;20020;-83
2022/04/02 03:27:05;;;;;;;13.85;11.57;;;;;;;-2.90;100.00;91654.88;2094344;28;20021;-81
2022/04/02 03:28:07;;;;;;;12.98;10.77;;;;;;;-2.83;100.00;91657.50;2100712;28;20106;-84
2022/04/02 03:29:07;;;;;;;13.38;11.07;;;;;;;-2.80;100.00;91656.78;2106211;28;20030;-82
2022/04/02 03:30:10;;;;;;;14.30;11.52;;;;;;;-2.89;100.00;91657.13;2106896;28;20028;-82
2022/04/02 03:31:12;;;;;;;14.70;11.48;;;;;;;-2.78;100.00;91649.31;2091517;28;20028;-82
2022/04/02 03:32:13;;;;;;;13.27;10.95;;;;;;;-2.84;100.00;91656.78;2096901;28;20012;-82
2022/04/02 03:33:14;;;;;;;11.95;10.30;;;;;;;-2.94;100.00;91657.47;2098293;28;20032;-82
2022/04/02 03:34:15;;;;;;;14.43;10.65;;;;;;;-3.06;100.00;91647.34;2090324;28;20062;-81
2022/04/02 03:35:18;;;;;;;14.32;11.07;;;;;;;-2.90;100.00;91653.00;2084147;28;20025;-82
2022/04/02 03:36:19;;;;;;;13.25;10.73;;;;;;;-2.92;100.00;91655.25;2089733;28;20494;-82
2022/04/02 03:37:20;;;;;;;13.85;11.23;;;;;;;-2.89;100.00;91659.00;2097202;28;20028;-81
2022/04/02 03:38:21;;;;;;;14.13;10.85;;;;;;;-2.95;100.00;91645.50;2106833;28;20044;-82
2022/04/02 03:39:22;;;;;;;12.95;10.75;;;;;;;-2.83;100.00;91652.28;2091356;28;20532;-81
2022/04/02 03:40:33;;;;;;;12.15;10.68;;;;;;;-2.94;100.00;91648.88;2095006;28;20530;-82
2022/04/02 03:41:34;;;;;;;11.82;9.60;;;;;;;-2.90;100.00;91649.63;2091376;28;20032;-82
2022/04/02 03:42:38;;;;;;;12.70;10.07;;;;;;;-2.90;100.00;91655.59;2090238;28;20044;-83
2022/04/02 03:43:41;;;;;;;12.90;9.73;;;;;;;-2.91;100.00;91648.16;2083211;28;20057;-81
2022/04/02 03:44:42;;;;;;;11.15;9.73;;;;;;;-2.87;100.00;91652.28;2101243;28;20028;-80
2022/04/02 03:45:43;;;;;;;11.80;9.65;;;;;;;-2.91;100.00;91645.53;2102980;28;20016;-81
2022/04/02 03:48:04;;;;;;;11.85;9.35;;;;;;;-2.88;100.00;91655.25;2112354;27;20020;-82
2022/04/02 03:49:05;;;;;;;10.05;8.93;;;;;;;-2.80;100.00;91654.91;2102845;28;20032;-84
2022/04/02 03:50:07;;;;;;;14.32;10.00;;;;;;;-2.76;100.00;91651.59;2098482;28;20024;-81
2022/04/02 03:51:08;;;;;;;10.85;9.32;;;;;;;-2.85;100.00;91651.91;2090974;28;20021;-83
2022/04/02 03:52:10;;;;;;;11.38;9.35;;;;;;;-2.85;100.00;91654.53;2100749;28;20021;-83
2022/04/02 03:53:11;;;;;;;10.65;8.50;;;;;;;-2.87;100.00;91654.88;2098561;28;20469;-82
2022/04/02 03:54:12;;;;;;;9.80;8.77;;;;;;;-2.93;100.00;91653.75;2087399;28;20057;-84
2022/04/02 03:55:14;;;;;;;11.55;9.60;;;;;;;-2.98;100.00;91653.34;2089761;28;20059;-82
2022/04/02 03:56:18;;;;;;;9.50;8.50;;;;;;;-2.98;100.00;91651.50;2104372;27;20021;-82
2022/04/02 03:57:19;;;;;;;9.88;8.88;;;;;;;-2.97;100.00;91657.47;2106533;28;20098;-82
2022/04/02 03:58:20;;;;;;;10.00;8.98;;;;;;;-2.86;100.00;91658.25;2089347;28;20028;-81
2022/04/02 03:59:22;;;;;;;9.57;8.35;;;;;;;-2.82;100.00;91653.78;2100094;28;20032;-83
2022/04/02 04:00:23;;;;;;;10.77;9.10;;;;;;;-2.81;100.00;91657.88;2088584;28;20025;-83
2022/04/02 04:01:26;;;;;;;9.20;8.25;;;;;;;-2.85;100.00;91659.75;2089808;28;20493;-82
2022/04/02 04:02:27;;;;;;;10.52;8.52;;;;;;;-2.82;100.00;91657.13;2097327;28;20099;-83
2022/04/02 04:03:28;;;;;;;8.98;7.82;;;;;;;-2.76;100.00;91656.81;2107193;28;20016;-81
2022/04/02 04:04:29;;;;;;;9.13;8.10;;;;;;;-2.79;100.00;91658.28;2111248;28;20058;-81
2022/04/02 04:05:30;;;;;;;9.27;8.20;;;;;;;-2.73;100.00;91659.41;2112941;28;20112;-82
2022/04/02 04:06:31;;;;;;;9.45;8.43;;;;;;;-2.77;100.00;91661.25;2103758;28;20035;-80
2022/04/02 04:07:32;;;;;;;9.07;8.18;;;;;;;-2.80;100.00;91667.25;2105080;28;20024;-83
2022/04/02 04:08:36;;;;;;;8.82;7.93;;;;;;;-2.82;100.00;91659.75;2111482;28;20476;-82
2022/04/02 04:09:40;;;;;;;9.88;8.80;;;;;;;-2.93;100.00;91661.59;2109979;28;20038;-82
2022/04/02 04:10:41;;;;;;;8.75;7.85;;;;;;;-2.96;100.00;91664.19;2100602;28;20367;-82
2022/04/02 04:11:42;;;;;;;8.75;7.70;;;;;;;-2.97;100.00;91671.28;2102138;28;20048;-83
2022/04/02 04:12:44;;;;;;;10.52;8.40;;;;;;;-2.95;100.00;91666.41;2116089;27;20032;-81
2022/04/02 04:13:46;;;;;;;8.98;7.90;;;;;;;-2.98;100.00;91674.25;2100729;28;20409;-83
2022/04/02 04:14:47;;;;;;;9.00;7.68;;;;;;;-2.95;100.00;91668.28;2081742;28;20022;-82
2022/04/02 04:15:48;;;;;;;10.65;8.20;;;;;;;-3.02;100.00;91666.41;2089782;28;20367;-84
2022/04/02 04:16:49;;;;;;;10.18;8.35;;;;;;;-3.05;100.00;91667.88;2095391;28;20035;-80
2022/04/02 04:17:50;;;;;;;8.65;7.75;;;;;;;-3.01;100.00;91667.91;2095907;28;20464;-81
2022/04/02 04:18:52;;;;;;;9.43;8.43;;;;;;;-3.04;100.00;91669.38;2093013;28;20059;-82
2022/04/02 04:19:53;;;;;;;10.93;8.70;;;;;;;-2.97;100.00;91678.38;2112775;28;20027;-81
2022/04/02 04:20:54;;;;;;;9.50;8.50;;;;;;;-3.05;100.00;91673.09;2105161;28;20024;-80
2022/04/02 04:21:56;;;;;;;9.52;8.52;;;;;;;-2.97;100.00;91673.88;2094172;28;20116;-83
2022/04/02 04:22:57;;;;;;;10.38;8.98;;;;;;;-2.85;100.00;91673.56;2090006;28;20033;-82
2022/04/02 04:23:58;;;;;;;9.07;7.93;;;;;;;-2.96;100.00;91672.03;2090045;28;20031;-80
2022/04/02 04:24:59;;;;;;;8.93;8.02;;;;;;;-3.00;100.00;91673.88;2098563;28;20501;-83
2022/04/02 04:26:01;;;;;;;8.85;7.95;;;;;;;-3.01;100.00;91667.16;2098124;28;20024;-81
2022/04/02 04:27:03;;;;;;;10.93;8.73;;;;;;;-3.02;100.00;91681.34;2092563;28;20074;-84
2022/04/02 04:28:04;;;;;;;9.85;8.35;;;;;;;-2.98;100.00;91677.63;2091501;28;20032;-84
2022/04/02 04:29:08;;;;;;;10.45;8.68;;;;;;;-2.94;100.00;91680.22;2096088;28;20020;-82
2022/04/02 04:30:10;;;;;;;9.57;8.55;;;;;;;-2.90;100.00;91678.38;2104921;28;20550;-83
2022/04/02 04:31:17;;;;;;;10.15;9.10;;;;;;;-3.01;100.00;91677.59;2097798;28;20025;-83
2022/04/02 04:32:18;;;;;;;9.93;8.43;;;;;;;-2.85;100.00;91675.44;2092064;28;20031;-82
2022/04/02 04:33:19;;;;;;;10.57;8.82;;;;;;;-2.66;100.00;91674.41;2096269;28;20544;-83
2022/04/02 04:34:20;;;;;;;10.00;8.77;;;;;;;-2.61;100.00;91671.41;2092129;28;20020;-82
2022/04/02 04:35:20;;;;;;;10.52;9.43;;;;;;;-2.53;100.00;91675.56;2088713;28;20033;-81
2022/04/02 04:36:22;;;;;;;12.07;10.38;;;;;;;-2.72;100.00;91684.47;2093441;28;20055;-83
2022/04/02 04:37:23;;;;;;;11.98;9.63;;;;;;;-2.69;100.00;91680.34;2102644;28;20016;-85
2022/04/02 04:38:24;;;;;;;11.88;8.95;;;;;;;-2.76;100.00;91680.34;2106373;28;20031;-83
2022/04/02 04:39:25;;;;;;;10.98;8.98;;;;;;;-2.63;100.00;91679.66;2098114;28;20027;-83
2022/04/02 04:40:26;;;;;;;12.27;9.68;;;;;;;-2.82;100.00;91683.28;2082842;28;20029;-84
2022/04/02 04:41:27;;;;;;;11.18;9.32;;;;;;;-2.94;100.00;91677.63;2098058;28;20032;-82
2022/04/02 04:42:28;;;;;;;14.07;10.32;;;;;;;-2.97;100.00;91686.22;2109066;28;20485;-82
2022/04/02 04:43:30;;;;;;;12.88;9.93;;;;;;;-3.10;100.00;91683.16;2106204;28;20024;-83
2022/04/02 04:44:31;;;;;;;13.23;10.32;;;;;;;-3.09;100.00;91680.16;2100978;28;20032;-82
2022/04/02 04:45:32;;;;;;;12.77;10.07;;;;;;;-3.07;100.00;91695.50;2100012;28;20054;-81
2022/04/02 04:46:33;;;;;;;15.23;10.32;;;;;;;-2.98;100.00;91687.34;2111320;28;20016;-81
2022/04/02 04:47:34;;;;;;;13.32;10.52;;;;;;;-3.13;100.00;91696.94;2102104;28;20024;-81
2022/04/02 04:48:35;;;;;;;11.60;10.27;;;;;;;-3.01;100.00;91693.28;2097147;28;20492;-82